sensor_id;sensor_type;location;lat;lon;timestamp;P1;durP1;ratioP1;P2;durP2;ratioP2
67108;SDS011;54027;50.786;7.058;2024-01-30T00:00:21;19.98;;;12.85;;
67108;SDS011;54027;50.786;7.058;2024-01-30T00:02:46;21.50;;;11.75;;
67108;SDS011;54027;50.786;7.058;2024-01-30T00:05:12;20.65;;;13.85;;
67108;SDS011;54027;50.786;7.058;2024-01-30T00:07:37;19.17;;;13.27;;
67108;SDS011;54027;50.786;7.058;2024-01-30T00:10:02;22.42;;;13.85;;
67108;SDS011;54027;50.786;7.058;2024-01-30T00:12:28;22.80;;;13.95;;
67108;SDS011;54027;50.786;7.058;2024-01-30T00:14:53;21.27;;;13.50;;
67108;SDS011;54027;50.786;7.058;2024-01-30T00:17:19;21.58;;;13.02;;
67108;SDS011;54027;50.786;7.058;2024-01-30T00:19:45;21.45;;;14.25;;
67108;SDS011;54027;50.786;7.058;2024-01-30T00:22:11;20.10;;;13.82;;
67108;SDS011;54027;50.786;7.058;2024-01-30T00:24:36;21.80;;;13.68;;
67108;SDS011;54027;50.786;7.058;2024-01-30T00:27:02;16.92;;;13.02;;
67108;SDS011;54027;50.786;7.058;2024-01-30T00:29:27;22.77;;;13.88;;
67108;SDS011;54027;50.786;7.058;2024-01-30T00:31:56;22.30;;;13.90;;
67108;SDS011;54027;50.786;7.058;2024-01-30T00:34:21;22.40;;;13.77;;
67108;SDS011;54027;50.786;7.058;2024-01-30T00:36:46;21.30;;;13.70;;
67108;SDS011;54027;50.786;7.058;2024-01-30T00:39:12;18.05;;;13.02;;
67108;SDS011;54027;50.786;7.058;2024-01-30T00:41:37;25.88;;;12.88;;
67108;SDS011;54027;50.786;7.058;2024-01-30T00:44:03;22.02;;;12.82;;
67108;SDS011;54027;50.786;7.058;2024-01-30T00:46:28;20.23;;;12.57;;
67108;SDS011;54027;50.786;7.058;2024-01-30T00:48:54;22.15;;;13.32;;
67108;SDS011;54027;50.786;7.058;2024-01-30T00:51:19;24.27;;;13.98;;
67108;SDS011;54027;50.786;7.058;2024-01-30T00:53:45;23.05;;;12.35;;
67108;SDS011;54027;50.786;7.058;2024-01-30T00:56:10;23.23;;;13.48;;
67108;SDS011;54027;50.786;7.058;2024-01-30T00:58:36;21.35;;;11.63;;
67108;SDS011;54027;50.786;7.058;2024-01-30T01:01:01;22.15;;;13.10;;
67108;SDS011;54027;50.786;7.058;2024-01-30T01:03:27;21.77;;;12.30;;
67108;SDS011;54027;50.786;7.058;2024-01-30T01:05:52;22.05;;;12.85;;
67108;SDS011;54027;50.786;7.058;2024-01-30T01:08:18;18.50;;;12.93;;
67108;SDS011;54027;50.786;7.058;2024-01-30T01:10:43;20.20;;;12.48;;
67108;SDS011;54027;50.786;7.058;2024-01-30T01:13:08;17.08;;;11.48;;
67108;SDS011;54027;50.786;7.058;2024-01-30T01:15:34;18.83;;;11.68;;
67108;SDS011;54027;50.786;7.058;2024-01-30T01:18:00;20.48;;;13.60;;
67108;SDS011;54027;50.786;7.058;2024-01-30T01:20:25;18.08;;;12.43;;
67108;SDS011;54027;50.786;7.058;2024-01-30T01:22:50;23.95;;;13.20;;
67108;SDS011;54027;50.786;7.058;2024-01-30T01:25:17;18.95;;;13.20;;
67108;SDS011;54027;50.786;7.058;2024-01-30T01:27:43;21.30;;;13.13;;
67108;SDS011;54027;50.786;7.058;2024-01-30T01:30:09;24.00;;;13.10;;
67108;SDS011;54027;50.786;7.058;2024-01-30T01:32:36;19.02;;;12.55;;
67108;SDS011;54027;50.786;7.058;2024-01-30T01:35:03;19.75;;;12.75;;
67108;SDS011;54027;50.786;7.058;2024-01-30T01:37:30;20.42;;;13.27;;
67108;SDS011;54027;50.786;7.058;2024-01-30T01:39:56;21.80;;;13.13;;
67108;SDS011;54027;50.786;7.058;2024-01-30T01:42:21;19.55;;;12.35;;
67108;SDS011;54027;50.786;7.058;2024-01-30T01:44:47;19.73;;;12.50;;
67108;SDS011;54027;50.786;7.058;2024-01-30T01:47:13;18.25;;;12.45;;
67108;SDS011;54027;50.786;7.058;2024-01-30T01:49:39;24.55;;;12.20;;
67108;SDS011;54027;50.786;7.058;2024-01-30T01:52:04;19.13;;;11.68;;
67108;SDS011;54027;50.786;7.058;2024-01-30T01:54:30;19.23;;;12.40;;
67108;SDS011;54027;50.786;7.058;2024-01-30T01:56:56;19.60;;;12.75;;
67108;SDS011;54027;50.786;7.058;2024-01-30T01:59:22;17.38;;;11.68;;
67108;SDS011;54027;50.786;7.058;2024-01-30T02:01:49;20.92;;;12.45;;
67108;SDS011;54027;50.786;7.058;2024-01-30T02:04:15;18.52;;;12.00;;
67108;SDS011;54027;50.786;7.058;2024-01-30T02:06:41;20.98;;;12.13;;
67108;SDS011;54027;50.786;7.058;2024-01-30T02:09:07;20.17;;;12.60;;
67108;SDS011;54027;50.786;7.058;2024-01-30T02:11:34;19.42;;;12.25;;
67108;SDS011;54027;50.786;7.058;2024-01-30T02:14:03;20.02;;;13.25;;
67108;SDS011;54027;50.786;7.058;2024-01-30T02:16:29;20.98;;;12.32;;
67108;SDS011;54027;50.786;7.058;2024-01-30T02:18:55;19.23;;;12.30;;
67108;SDS011;54027;50.786;7.058;2024-01-30T02:21:20;19.25;;;13.05;;
67108;SDS011;54027;50.786;7.058;2024-01-30T02:23:48;18.80;;;13.15;;
67108;SDS011;54027;50.786;7.058;2024-01-30T02:26:15;18.60;;;12.90;;
67108;SDS011;54027;50.786;7.058;2024-01-30T02:28:41;23.60;;;12.68;;
67108;SDS011;54027;50.786;7.058;2024-01-30T02:31:06;19.42;;;12.30;;
67108;SDS011;54027;50.786;7.058;2024-01-30T02:33:31;20.33;;;12.20;;
67108;SDS011;54027;50.786;7.058;2024-01-30T02:35:57;17.73;;;11.75;;
67108;SDS011;54027;50.786;7.058;2024-01-30T02:38:22;20.98;;;12.25;;
67108;SDS011;54027;50.786;7.058;2024-01-30T02:40:51;21.00;;;12.55;;
67108;SDS011;54027;50.786;7.058;2024-01-30T02:43:17;22.50;;;12.57;;
67108;SDS011;54027;50.786;7.058;2024-01-30T02:45:43;19.38;;;11.85;;
67108;SDS011;54027;50.786;7.058;2024-01-30T02:48:08;19.30;;;12.13;;
67108;SDS011;54027;50.786;7.058;2024-01-30T02:50:33;16.58;;;11.60;;
67108;SDS011;54027;50.786;7.058;2024-01-30T02:52:59;17.35;;;11.23;;
67108;SDS011;54027;50.786;7.058;2024-01-30T02:55:25;18.60;;;12.10;;
67108;SDS011;54027;50.786;7.058;2024-01-30T02:57:50;21.98;;;11.98;;
67108;SDS011;54027;50.786;7.058;2024-01-30T03:00:16;19.83;;;12.48;;
67108;SDS011;54027;50.786;7.058;2024-01-30T03:02:41;22.15;;;13.23;;
67108;SDS011;54027;50.786;7.058;2024-01-30T03:05:07;20.88;;;13.70;;
67108;SDS011;54027;50.786;7.058;2024-01-30T03:07:33;20.20;;;13.25;;
67108;SDS011;54027;50.786;7.058;2024-01-30T03:09:59;22.70;;;13.18;;
67108;SDS011;54027;50.786;7.058;2024-01-30T03:12:24;21.27;;;12.77;;
67108;SDS011;54027;50.786;7.058;2024-01-30T03:14:50;24.60;;;12.90;;
67108;SDS011;54027;50.786;7.058;2024-01-30T03:17:15;19.85;;;13.40;;
67108;SDS011;54027;50.786;7.058;2024-01-30T03:19:40;21.13;;;12.70;;
67108;SDS011;54027;50.786;7.058;2024-01-30T03:22:06;20.75;;;12.85;;
67108;SDS011;54027;50.786;7.058;2024-01-30T03:24:31;22.30;;;12.52;;
67108;SDS011;54027;50.786;7.058;2024-01-30T03:26:57;25.02;;;12.35;;
67108;SDS011;54027;50.786;7.058;2024-01-30T03:29:22;16.90;;;11.80;;
67108;SDS011;54027;50.786;7.058;2024-01-30T03:31:47;17.45;;;11.95;;
67108;SDS011;54027;50.786;7.058;2024-01-30T03:34:13;21.08;;;10.95;;
67108;SDS011;54027;50.786;7.058;2024-01-30T03:36:38;18.20;;;11.13;;
67108;SDS011;54027;50.786;7.058;2024-01-30T03:39:04;19.10;;;11.75;;
67108;SDS011;54027;50.786;7.058;2024-01-30T03:41:29;17.23;;;11.15;;
67108;SDS011;54027;50.786;7.058;2024-01-30T03:43:55;18.27;;;11.80;;
67108;SDS011;54027;50.786;7.058;2024-01-30T03:46:20;17.27;;;10.63;;
67108;SDS011;54027;50.786;7.058;2024-01-30T03:48:45;16.77;;;10.32;;
67108;SDS011;54027;50.786;7.058;2024-01-30T03:51:11;18.75;;;10.57;;
67108;SDS011;54027;50.786;7.058;2024-01-30T03:53:41;16.27;;;10.57;;
67108;SDS011;54027;50.786;7.058;2024-01-30T03:56:07;21.90;;;10.48;;
67108;SDS011;54027;50.786;7.058;2024-01-30T03:58:33;13.20;;;9.45;;
67108;SDS011;54027;50.786;7.058;2024-01-30T04:00:58;16.45;;;9.38;;
67108;SDS011;54027;50.786;7.058;2024-01-30T04:03:23;18.23;;;10.20;;
67108;SDS011;54027;50.786;7.058;2024-01-30T04:05:51;15.02;;;8.80;;
67108;SDS011;54027;50.786;7.058;2024-01-30T04:08:17;19.30;;;11.45;;
67108;SDS011;54027;50.786;7.058;2024-01-30T04:10:42;12.23;;;9.02;;
67108;SDS011;54027;50.786;7.058;2024-01-30T04:13:08;17.55;;;9.75;;
67108;SDS011;54027;50.786;7.058;2024-01-30T04:15:33;14.00;;;9.32;;
67108;SDS011;54027;50.786;7.058;2024-01-30T04:17:59;15.50;;;9.55;;
67108;SDS011;54027;50.786;7.058;2024-01-30T04:20:25;17.25;;;9.13;;
67108;SDS011;54027;50.786;7.058;2024-01-30T04:22:50;14.10;;;8.95;;
67108;SDS011;54027;50.786;7.058;2024-01-30T04:25:16;17.23;;;8.88;;
67108;SDS011;54027;50.786;7.058;2024-01-30T04:27:41;12.35;;;7.93;;
67108;SDS011;54027;50.786;7.058;2024-01-30T04:30:07;14.15;;;8.98;;
67108;SDS011;54027;50.786;7.058;2024-01-30T04:32:33;13.68;;;8.40;;
67108;SDS011;54027;50.786;7.058;2024-01-30T04:34:58;15.05;;;8.25;;
67108;SDS011;54027;50.786;7.058;2024-01-30T04:37:23;19.98;;;12.07;;
67108;SDS011;54027;50.786;7.058;2024-01-30T04:39:49;14.85;;;10.13;;
67108;SDS011;54027;50.786;7.058;2024-01-30T04:42:15;16.60;;;10.40;;
67108;SDS011;54027;50.786;7.058;2024-01-30T04:44:41;16.75;;;9.90;;
67108;SDS011;54027;50.786;7.058;2024-01-30T04:47:06;16.25;;;9.05;;
67108;SDS011;54027;50.786;7.058;2024-01-30T04:49:34;14.32;;;9.35;;
67108;SDS011;54027;50.786;7.058;2024-01-30T04:51:59;13.82;;;8.55;;
67108;SDS011;54027;50.786;7.058;2024-01-30T04:54:25;14.05;;;8.90;;
67108;SDS011;54027;50.786;7.058;2024-01-30T04:56:50;16.10;;;9.30;;
67108;SDS011;54027;50.786;7.058;2024-01-30T04:59:16;15.65;;;9.77;;
67108;SDS011;54027;50.786;7.058;2024-01-30T05:01:41;13.85;;;8.88;;
67108;SDS011;54027;50.786;7.058;2024-01-30T05:04:07;13.40;;;8.88;;
67108;SDS011;54027;50.786;7.058;2024-01-30T05:06:33;17.75;;;10.13;;
67108;SDS011;54027;50.786;7.058;2024-01-30T05:08:58;15.05;;;8.95;;
67108;SDS011;54027;50.786;7.058;2024-01-30T05:11:23;18.35;;;9.20;;
67108;SDS011;54027;50.786;7.058;2024-01-30T05:13:49;13.95;;;9.05;;
67108;SDS011;54027;50.786;7.058;2024-01-30T05:16:14;14.25;;;9.10;;
67108;SDS011;54027;50.786;7.058;2024-01-30T05:18:39;21.60;;;9.15;;
67108;SDS011;54027;50.786;7.058;2024-01-30T05:21:05;13.45;;;9.68;;
67108;SDS011;54027;50.786;7.058;2024-01-30T05:23:30;14.88;;;10.13;;
67108;SDS011;54027;50.786;7.058;2024-01-30T05:25:56;17.50;;;9.95;;
67108;SDS011;54027;50.786;7.058;2024-01-30T05:28:21;16.17;;;9.55;;
67108;SDS011;54027;50.786;7.058;2024-01-30T05:30:46;19.17;;;10.10;;
67108;SDS011;54027;50.786;7.058;2024-01-30T05:33:12;13.57;;;8.55;;
67108;SDS011;54027;50.786;7.058;2024-01-30T05:35:38;13.60;;;9.38;;
67108;SDS011;54027;50.786;7.058;2024-01-30T05:38:04;14.60;;;9.20;;
67108;SDS011;54027;50.786;7.058;2024-01-30T05:40:29;16.90;;;9.75;;
67108;SDS011;54027;50.786;7.058;2024-01-30T05:42:55;15.25;;;9.57;;
67108;SDS011;54027;50.786;7.058;2024-01-30T05:45:23;13.95;;;9.27;;
67108;SDS011;54027;50.786;7.058;2024-01-30T05:47:48;16.42;;;9.93;;
67108;SDS011;54027;50.786;7.058;2024-01-30T05:50:14;16.15;;;10.65;;
67108;SDS011;54027;50.786;7.058;2024-01-30T05:52:39;17.13;;;10.75;;
67108;SDS011;54027;50.786;7.058;2024-01-30T05:55:05;15.10;;;9.63;;
67108;SDS011;54027;50.786;7.058;2024-01-30T05:57:31;13.18;;;9.13;;
67108;SDS011;54027;50.786;7.058;2024-01-30T05:59:56;15.93;;;9.73;;
67108;SDS011;54027;50.786;7.058;2024-01-30T06:02:21;17.55;;;9.55;;
67108;SDS011;54027;50.786;7.058;2024-01-30T06:04:47;15.60;;;9.98;;
67108;SDS011;54027;50.786;7.058;2024-01-30T06:07:12;15.60;;;9.73;;
67108;SDS011;54027;50.786;7.058;2024-01-30T06:09:39;14.60;;;8.85;;
67108;SDS011;54027;50.786;7.058;2024-01-30T06:12:05;14.38;;;8.52;;
67108;SDS011;54027;50.786;7.058;2024-01-30T06:14:31;17.77;;;9.35;;
67108;SDS011;54027;50.786;7.058;2024-01-30T06:16:57;15.02;;;9.18;;
67108;SDS011;54027;50.786;7.058;2024-01-30T06:19:23;14.43;;;8.82;;
67108;SDS011;54027;50.786;7.058;2024-01-30T06:21:48;15.88;;;9.52;;
67108;SDS011;54027;50.786;7.058;2024-01-30T06:24:14;19.23;;;9.70;;
67108;SDS011;54027;50.786;7.058;2024-01-30T06:26:39;15.93;;;9.85;;
67108;SDS011;54027;50.786;7.058;2024-01-30T06:29:04;16.10;;;10.70;;
67108;SDS011;54027;50.786;7.058;2024-01-30T06:31:30;18.73;;;10.45;;
67108;SDS011;54027;50.786;7.058;2024-01-30T06:33:56;16.70;;;11.00;;
67108;SDS011;54027;50.786;7.058;2024-01-30T06:36:21;17.92;;;11.05;;
67108;SDS011;54027;50.786;7.058;2024-01-30T06:38:46;15.50;;;10.18;;
67108;SDS011;54027;50.786;7.058;2024-01-30T06:41:12;17.50;;;10.73;;
67108;SDS011;54027;50.786;7.058;2024-01-30T06:43:37;17.92;;;10.05;;
67108;SDS011;54027;50.786;7.058;2024-01-30T06:46:02;18.60;;;11.50;;
67108;SDS011;54027;50.786;7.058;2024-01-30T06:48:28;18.13;;;10.98;;
67108;SDS011;54027;50.786;7.058;2024-01-30T06:50:53;20.40;;;11.55;;
67108;SDS011;54027;50.786;7.058;2024-01-30T06:53:19;20.58;;;11.20;;
67108;SDS011;54027;50.786;7.058;2024-01-30T06:55:44;20.90;;;11.20;;
67108;SDS011;54027;50.786;7.058;2024-01-30T06:58:10;20.27;;;11.25;;
67108;SDS011;54027;50.786;7.058;2024-01-30T07:00:35;18.90;;;10.32;;
67108;SDS011;54027;50.786;7.058;2024-01-30T07:03:01;17.63;;;10.70;;
67108;SDS011;54027;50.786;7.058;2024-01-30T07:05:27;21.25;;;10.80;;
67108;SDS011;54027;50.786;7.058;2024-01-30T07:07:52;13.90;;;9.57;;
67108;SDS011;54027;50.786;7.058;2024-01-30T07:10:17;15.45;;;10.10;;
67108;SDS011;54027;50.786;7.058;2024-01-30T07:12:43;16.58;;;10.88;;
67108;SDS011;54027;50.786;7.058;2024-01-30T07:15:08;21.30;;;10.95;;
67108;SDS011;54027;50.786;7.058;2024-01-30T07:17:35;19.20;;;9.75;;
67108;SDS011;54027;50.786;7.058;2024-01-30T07:20:00;16.15;;;10.27;;
67108;SDS011;54027;50.786;7.058;2024-01-30T07:22:28;13.77;;;10.05;;
67108;SDS011;54027;50.786;7.058;2024-01-30T07:24:54;20.25;;;13.75;;
67108;SDS011;54027;50.786;7.058;2024-01-30T07:27:20;23.90;;;14.60;;
67108;SDS011;54027;50.786;7.058;2024-01-30T07:29:46;20.80;;;12.05;;
67108;SDS011;54027;50.786;7.058;2024-01-30T07:32:12;19.33;;;12.35;;
67108;SDS011;54027;50.786;7.058;2024-01-30T07:34:37;16.88;;;11.32;;
67108;SDS011;54027;50.786;7.058;2024-01-30T07:37:03;15.98;;;10.20;;
67108;SDS011;54027;50.786;7.058;2024-01-30T07:39:28;15.63;;;9.85;;
67108;SDS011;54027;50.786;7.058;2024-01-30T07:41:53;15.63;;;9.55;;
67108;SDS011;54027;50.786;7.058;2024-01-30T07:44:19;19.63;;;11.20;;
67108;SDS011;54027;50.786;7.058;2024-01-30T07:46:45;16.33;;;9.73;;
67108;SDS011;54027;50.786;7.058;2024-01-30T07:49:10;16.90;;;10.48;;
67108;SDS011;54027;50.786;7.058;2024-01-30T07:51:36;19.20;;;10.35;;
67108;SDS011;54027;50.786;7.058;2024-01-30T07:54:01;15.52;;;10.07;;
67108;SDS011;54027;50.786;7.058;2024-01-30T07:56:26;19.60;;;10.45;;
67108;SDS011;54027;50.786;7.058;2024-01-30T07:58:52;16.27;;;10.50;;
67108;SDS011;54027;50.786;7.058;2024-01-30T08:01:18;17.70;;;10.90;;
67108;SDS011;54027;50.786;7.058;2024-01-30T08:03:43;15.98;;;10.57;;
67108;SDS011;54027;50.786;7.058;2024-01-30T08:06:09;14.10;;;10.07;;
67108;SDS011;54027;50.786;7.058;2024-01-30T08:08:34;17.63;;;10.05;;
67108;SDS011;54027;50.786;7.058;2024-01-30T08:11:00;19.92;;;11.02;;
67108;SDS011;54027;50.786;7.058;2024-01-30T08:13:25;16.15;;;10.68;;
67108;SDS011;54027;50.786;7.058;2024-01-30T08:15:51;15.57;;;9.88;;
67108;SDS011;54027;50.786;7.058;2024-01-30T08:18:16;18.95;;;10.25;;
67108;SDS011;54027;50.786;7.058;2024-01-30T08:20:41;20.55;;;10.43;;
67108;SDS011;54027;50.786;7.058;2024-01-30T08:23:07;17.85;;;10.27;;
67108;SDS011;54027;50.786;7.058;2024-01-30T08:25:32;18.48;;;10.48;;
67108;SDS011;54027;50.786;7.058;2024-01-30T08:27:58;21.10;;;11.68;;
67108;SDS011;54027;50.786;7.058;2024-01-30T08:30:23;16.20;;;10.95;;
67108;SDS011;54027;50.786;7.058;2024-01-30T08:32:48;18.30;;;9.95;;
67108;SDS011;54027;50.786;7.058;2024-01-30T08:35:14;18.75;;;10.07;;
67108;SDS011;54027;50.786;7.058;2024-01-30T08:37:40;20.73;;;11.05;;
67108;SDS011;54027;50.786;7.058;2024-01-30T08:40:07;15.38;;;10.93;;
67108;SDS011;54027;50.786;7.058;2024-01-30T08:42:33;20.52;;;10.98;;
67108;SDS011;54027;50.786;7.058;2024-01-30T08:44:59;16.75;;;10.73;;
67108;SDS011;54027;50.786;7.058;2024-01-30T08:47:24;16.58;;;10.27;;
67108;SDS011;54027;50.786;7.058;2024-01-30T08:49:50;24.88;;;13.40;;
67108;SDS011;54027;50.786;7.058;2024-01-30T08:52:16;22.08;;;11.88;;
67108;SDS011;54027;50.786;7.058;2024-01-30T08:54:41;19.52;;;10.55;;
67108;SDS011;54027;50.786;7.058;2024-01-30T08:57:06;18.08;;;10.80;;
67108;SDS011;54027;50.786;7.058;2024-01-30T08:59:32;26.40;;;15.85;;
67108;SDS011;54027;50.786;7.058;2024-01-30T09:01:58;19.23;;;11.65;;
67108;SDS011;54027;50.786;7.058;2024-01-30T09:04:24;16.33;;;10.80;;
67108;SDS011;54027;50.786;7.058;2024-01-30T09:06:50;15.88;;;10.38;;
67108;SDS011;54027;50.786;7.058;2024-01-30T09:09:15;18.90;;;9.63;;
67108;SDS011;54027;50.786;7.058;2024-01-30T09:11:41;15.20;;;9.90;;
67108;SDS011;54027;50.786;7.058;2024-01-30T09:14:06;15.57;;;8.93;;
67108;SDS011;54027;50.786;7.058;2024-01-30T09:16:32;16.15;;;9.30;;
67108;SDS011;54027;50.786;7.058;2024-01-30T09:18:57;15.35;;;9.50;;
67108;SDS011;54027;50.786;7.058;2024-01-30T09:21:23;16.83;;;9.48;;
67108;SDS011;54027;50.786;7.058;2024-01-30T09:23:48;13.63;;;8.57;;
67108;SDS011;54027;50.786;7.058;2024-01-30T09:26:13;16.30;;;9.73;;
67108;SDS011;54027;50.786;7.058;2024-01-30T09:28:39;14.73;;;9.98;;
67108;SDS011;54027;50.786;7.058;2024-01-30T09:31:09;15.13;;;9.20;;
67108;SDS011;54027;50.786;7.058;2024-01-30T09:33:34;15.00;;;9.82;;
67108;SDS011;54027;50.786;7.058;2024-01-30T09:36:01;22.05;;;10.07;;
67108;SDS011;54027;50.786;7.058;2024-01-30T09:38:26;16.85;;;9.25;;
67108;SDS011;54027;50.786;7.058;2024-01-30T09:40:53;17.60;;;8.90;;
67108;SDS011;54027;50.786;7.058;2024-01-30T09:43:23;16.42;;;9.13;;
67108;SDS011;54027;50.786;7.058;2024-01-30T09:45:49;14.52;;;9.07;;
67108;SDS011;54027;50.786;7.058;2024-01-30T09:48:16;15.00;;;8.45;;
67108;SDS011;54027;50.786;7.058;2024-01-30T09:50:41;13.48;;;8.77;;
67108;SDS011;54027;50.786;7.058;2024-01-30T09:53:07;13.30;;;8.80;;
67108;SDS011;54027;50.786;7.058;2024-01-30T09:55:34;14.13;;;7.65;;
67108;SDS011;54027;50.786;7.058;2024-01-30T09:58:00;14.23;;;8.23;;
67108;SDS011;54027;50.786;7.058;2024-01-30T10:00:26;12.43;;;7.28;;
67108;SDS011;54027;50.786;7.058;2024-01-30T10:02:52;13.25;;;7.60;;
67108;SDS011;54027;50.786;7.058;2024-01-30T10:05:18;13.18;;;7.40;;
67108;SDS011;54027;50.786;7.058;2024-01-30T10:07:54;16.15;;;8.40;;
67108;SDS011;54027;50.786;7.058;2024-01-30T10:10:21;12.25;;;7.63;;
67108;SDS011;54027;50.786;7.058;2024-01-30T10:12:49;17.38;;;8.57;;
67108;SDS011;54027;50.786;7.058;2024-01-30T10:15:15;15.95;;;8.10;;
67108;SDS011;54027;50.786;7.058;2024-01-30T10:17:40;12.73;;;7.95;;
67108;SDS011;54027;50.786;7.058;2024-01-30T10:20:06;12.00;;;7.53;;
67108;SDS011;54027;50.786;7.058;2024-01-30T10:22:32;12.75;;;8.05;;
67108;SDS011;54027;50.786;7.058;2024-01-30T10:24:58;13.45;;;7.72;;
67108;SDS011;54027;50.786;7.058;2024-01-30T10:27:25;20.02;;;8.07;;
67108;SDS011;54027;50.786;7.058;2024-01-30T10:29:52;15.98;;;8.23;;
67108;SDS011;54027;50.786;7.058;2024-01-30T10:32:17;14.30;;;8.88;;
67108;SDS011;54027;50.786;7.058;2024-01-30T10:34:42;14.10;;;8.68;;
67108;SDS011;54027;50.786;7.058;2024-01-30T10:37:09;22.00;;;8.95;;
67108;SDS011;54027;50.786;7.058;2024-01-30T10:39:38;17.92;;;8.75;;
67108;SDS011;54027;50.786;7.058;2024-01-30T10:42:04;12.15;;;7.97;;
67108;SDS011;54027;50.786;7.058;2024-01-30T10:44:35;14.45;;;8.88;;
67108;SDS011;54027;50.786;7.058;2024-01-30T10:47:06;14.48;;;7.97;;
67108;SDS011;54027;50.786;7.058;2024-01-30T10:49:39;14.63;;;7.88;;
67108;SDS011;54027;50.786;7.058;2024-01-30T10:52:06;14.98;;;8.10;;
67108;SDS011;54027;50.786;7.058;2024-01-30T10:54:34;15.00;;;7.80;;
67108;SDS011;54027;50.786;7.058;2024-01-30T10:57:00;13.57;;;7.90;;
67108;SDS011;54027;50.786;7.058;2024-01-30T10:59:28;14.98;;;8.38;;
67108;SDS011;54027;50.786;7.058;2024-01-30T11:01:56;15.88;;;8.82;;
67108;SDS011;54027;50.786;7.058;2024-01-30T11:04:22;16.45;;;9.13;;
67108;SDS011;54027;50.786;7.058;2024-01-30T11:06:48;15.05;;;7.80;;
67108;SDS011;54027;50.786;7.058;2024-01-30T11:09:16;14.63;;;8.88;;
67108;SDS011;54027;50.786;7.058;2024-01-30T11:11:52;14.70;;;8.65;;
67108;SDS011;54027;50.786;7.058;2024-01-30T11:14:29;13.55;;;8.73;;
67108;SDS011;54027;50.786;7.058;2024-01-30T11:16:58;12.50;;;8.55;;
67108;SDS011;54027;50.786;7.058;2024-01-30T11:19:25;16.05;;;8.85;;
67108;SDS011;54027;50.786;7.058;2024-01-30T11:21:52;13.48;;;8.13;;
67108;SDS011;54027;50.786;7.058;2024-01-30T11:24:19;10.68;;;7.88;;
67108;SDS011;54027;50.786;7.058;2024-01-30T11:26:58;19.35;;;8.85;;
67108;SDS011;54027;50.786;7.058;2024-01-30T11:29:24;16.33;;;8.10;;
67108;SDS011;54027;50.786;7.058;2024-01-30T11:31:54;13.65;;;8.52;;
67108;SDS011;54027;50.786;7.058;2024-01-30T11:34:20;15.73;;;8.35;;
67108;SDS011;54027;50.786;7.058;2024-01-30T11:36:48;12.32;;;7.57;;
67108;SDS011;54027;50.786;7.058;2024-01-30T11:39:20;14.50;;;7.80;;
67108;SDS011;54027;50.786;7.058;2024-01-30T11:41:46;15.52;;;8.40;;
67108;SDS011;54027;50.786;7.058;2024-01-30T11:44:12;14.38;;;8.98;;
67108;SDS011;54027;50.786;7.058;2024-01-30T11:46:38;16.05;;;8.63;;
67108;SDS011;54027;50.786;7.058;2024-01-30T11:49:03;14.10;;;7.65;;
67108;SDS011;54027;50.786;7.058;2024-01-30T11:51:30;12.63;;;7.93;;
67108;SDS011;54027;50.786;7.058;2024-01-30T11:53:56;15.93;;;8.40;;
67108;SDS011;54027;50.786;7.058;2024-01-30T11:56:23;14.32;;;8.38;;
67108;SDS011;54027;50.786;7.058;2024-01-30T11:58:49;15.35;;;8.55;;
67108;SDS011;54027;50.786;7.058;2024-01-30T12:01:16;11.82;;;7.50;;
67108;SDS011;54027;50.786;7.058;2024-01-30T12:03:42;13.05;;;8.00;;
67108;SDS011;54027;50.786;7.058;2024-01-30T12:06:08;13.50;;;8.38;;
67108;SDS011;54027;50.786;7.058;2024-01-30T12:08:34;14.20;;;8.35;;
67108;SDS011;54027;50.786;7.058;2024-01-30T12:10:59;12.82;;;8.30;;
67108;SDS011;54027;50.786;7.058;2024-01-30T12:13:27;11.75;;;8.02;;
67108;SDS011;54027;50.786;7.058;2024-01-30T12:15:54;13.00;;;8.30;;
67108;SDS011;54027;50.786;7.058;2024-01-30T12:18:19;12.00;;;7.82;;
67108;SDS011;54027;50.786;7.058;2024-01-30T12:20:45;16.23;;;7.75;;
67108;SDS011;54027;50.786;7.058;2024-01-30T12:23:11;13.35;;;8.55;;
67108;SDS011;54027;50.786;7.058;2024-01-30T12:25:37;17.35;;;8.98;;
67108;SDS011;54027;50.786;7.058;2024-01-30T12:28:03;14.43;;;8.32;;
67108;SDS011;54027;50.786;7.058;2024-01-30T12:30:29;13.93;;;8.48;;
67108;SDS011;54027;50.786;7.058;2024-01-30T12:32:54;15.70;;;8.60;;
67108;SDS011;54027;50.786;7.058;2024-01-30T12:35:20;13.13;;;8.02;;
67108;SDS011;54027;50.786;7.058;2024-01-30T12:37:46;14.82;;;8.50;;
67108;SDS011;54027;50.786;7.058;2024-01-30T12:40:13;16.63;;;8.82;;
67108;SDS011;54027;50.786;7.058;2024-01-30T12:42:40;15.43;;;7.40;;
67108;SDS011;54027;50.786;7.058;2024-01-30T12:45:07;12.43;;;7.65;;
67108;SDS011;54027;50.786;7.058;2024-01-30T12:47:32;15.05;;;7.97;;
67108;SDS011;54027;50.786;7.058;2024-01-30T12:49:58;10.07;;;7.07;;
67108;SDS011;54027;50.786;7.058;2024-01-30T12:52:23;18.13;;;8.35;;
67108;SDS011;54027;50.786;7.058;2024-01-30T12:54:50;10.95;;;7.28;;
67108;SDS011;54027;50.786;7.058;2024-01-30T12:57:16;15.60;;;6.70;;
67108;SDS011;54027;50.786;7.058;2024-01-30T12:59:42;12.88;;;8.38;;
67108;SDS011;54027;50.786;7.058;2024-01-30T13:02:14;13.18;;;6.90;;
67108;SDS011;54027;50.786;7.058;2024-01-30T13:04:40;13.15;;;6.95;;
67108;SDS011;54027;50.786;7.058;2024-01-30T13:07:07;13.35;;;6.90;;
67108;SDS011;54027;50.786;7.058;2024-01-30T13:09:32;12.85;;;7.78;;
67108;SDS011;54027;50.786;7.058;2024-01-30T13:11:58;11.63;;;8.02;;
67108;SDS011;54027;50.786;7.058;2024-01-30T13:14:24;15.65;;;7.32;;
67108;SDS011;54027;50.786;7.058;2024-01-30T13:16:49;13.13;;;8.05;;
67108;SDS011;54027;50.786;7.058;2024-01-30T13:19:14;12.75;;;7.15;;
67108;SDS011;54027;50.786;7.058;2024-01-30T13:21:40;9.35;;;6.70;;
67108;SDS011;54027;50.786;7.058;2024-01-30T13:24:05;13.48;;;7.35;;
67108;SDS011;54027;50.786;7.058;2024-01-30T13:26:34;11.70;;;7.82;;
67108;SDS011;54027;50.786;7.058;2024-01-30T13:28:59;12.60;;;7.72;;
67108;SDS011;54027;50.786;7.058;2024-01-30T13:31:25;13.00;;;7.68;;
67108;SDS011;54027;50.786;7.058;2024-01-30T13:33:50;14.38;;;6.95;;
67108;SDS011;54027;50.786;7.058;2024-01-30T13:36:15;10.98;;;6.88;;
67108;SDS011;54027;50.786;7.058;2024-01-30T13:38:41;15.57;;;7.78;;
67108;SDS011;54027;50.786;7.058;2024-01-30T13:41:06;17.92;;;7.88;;
67108;SDS011;54027;50.786;7.058;2024-01-30T13:43:32;11.93;;;7.50;;
67108;SDS011;54027;50.786;7.058;2024-01-30T13:45:57;12.05;;;7.22;;
67108;SDS011;54027;50.786;7.058;2024-01-30T13:48:22;11.73;;;6.47;;
67108;SDS011;54027;50.786;7.058;2024-01-30T13:50:48;11.45;;;7.38;;
67108;SDS011;54027;50.786;7.058;2024-01-30T13:53:13;10.48;;;6.20;;
67108;SDS011;54027;50.786;7.058;2024-01-30T13:55:39;14.55;;;7.00;;
67108;SDS011;54027;50.786;7.058;2024-01-30T13:58:05;15.48;;;6.75;;
67108;SDS011;54027;50.786;7.058;2024-01-30T14:00:30;13.90;;;7.05;;
67108;SDS011;54027;50.786;7.058;2024-01-30T14:02:56;11.15;;;7.20;;
67108;SDS011;54027;50.786;7.058;2024-01-30T14:05:23;13.77;;;7.70;;
67108;SDS011;54027;50.786;7.058;2024-01-30T14:07:49;14.15;;;7.75;;
67108;SDS011;54027;50.786;7.058;2024-01-30T14:10:15;11.27;;;6.85;;
67108;SDS011;54027;50.786;7.058;2024-01-30T14:12:41;13.73;;;7.28;;
67108;SDS011;54027;50.786;7.058;2024-01-30T14:15:08;10.23;;;6.95;;
67108;SDS011;54027;50.786;7.058;2024-01-30T14:17:36;12.75;;;8.52;;
67108;SDS011;54027;50.786;7.058;2024-01-30T14:20:03;11.48;;;6.50;;